Time;durP1;ratioP1;P1;durP2;ratioP2;P2;SDS_P1;SDS_P2;PMS_P1;PMS_P2;Temp;Humidity;BMP_temperature;BMP_pressure;BME280_temperature;BME280_humidity;BME280_pressure;Samples;Min_cycle;Max_cycle;Signal;HPM_P1;HPM_P2
2022/05/24 00:01:50;;;;;;;7.50;1.42;;;16.00;99.90;;;;;;5074017;28;20561;-68
2022/05/24 00:04:16;;;;;;;2.78;1.30;;;16.10;99.90;;;;;;5073799;28;20090;-70
2022/05/24 00:06:41;;;;;;;10.52;2.05;;;16.20;99.90;;;;;;5073972;28;20036;-69
2022/05/24 00:09:07;;;;;;;4.93;1.05;;;16.40;99.90;;;;;;5073915;28;20044;-67
2022/05/24 00:11:33;;;;;;;4.38;1.40;;;16.30;99.90;;;;;;5073934;28;20106;-69
2022/05/24 00:13:59;;;;;;;2.72;1.10;;;16.30;99.90;;;;;;5073860;28;20044;-68
2022/05/24 00:16:25;;;;;;;6.00;1.13;;;16.10;99.90;;;;;;5073820;28;20533;-68
2022/05/24 00:18:51;;;;;;;10.68;1.55;;;16.10;99.90;;;;;;5073704;28;20032;-67
2022/05/24 00:21:17;;;;;;;5.93;1.50;;;15.90;99.90;;;;;;5073990;28;20049;-67
2022/05/24 00:23:43;;;;;;;5.22;1.52;;;;;;;;;;5073742;28;20055;-69
2022/05/24 00:26:21;;;;;;;8.48;1.67;;;15.30;99.90;;;;;;5073887;28;20036;-67
2022/05/24 00:28:47;;;;;;;6.10;1.15;;;15.20;99.90;;;;;;5073720;28;20036;-66
2022/05/24 00:31:13;;;;;;;8.43;1.35;;;15.10;99.90;;;;;;5073640;28;20035;-67
2022/05/24 00:33:39;;;;;;;6.25;1.35;;;15.20;99.90;;;;;;5073573;28;20040;-69
2022/05/24 00:36:05;;;;;;;4.90;1.45;;;15.30;99.90;;;;;;5072649;28;20037;-67
2022/05/24 00:38:36;;;;;;;5.18;1.40;;;15.50;99.90;;;;;;5064957;28;20040;-67
2022/05/24 00:41:13;;;;;;;4.70;1.30;;;15.60;99.90;;;;;;5071423;28;20128;-69
2022/05/24 00:43:47;;;;;;;5.00;1.48;;;15.70;99.90;;;;;;5073044;28;20381;-69
2022/05/24 00:46:23;;;;;;;6.82;1.83;;;15.80;99.90;;;;;;5073536;28;20044;-67
2022/05/24 00:48:59;;;;;;;6.72;1.42;;;15.80;99.90;;;;;;5073662;28;20037;-67
2022/05/24 00:51:31;;;;;;;4.28;1.75;;;15.70;99.90;;;;;;5073506;28;20047;-67
2022/05/24 00:53:57;;;;;;;6.50;1.15;;;15.70;99.90;;;;;;5073707;28;20044;-67
2022/05/24 00:56:47;;;;;;;6.18;1.45;;;15.60;99.90;;;;;;5073436;28;20086;-69
2022/05/24 00:59:23;;;;;;;7.25;1.40;;;15.60;99.90;;;;;;5073546;28;20040;-69
2022/05/24 01:01:50;;;;;;;6.95;1.25;;;15.60;99.90;;;;;;5073611;28;20048;-67
2022/05/24 01:04:17;;;;;;;5.78;1.50;;;15.60;99.90;;;;;;5073554;28;20051;-67
2022/05/24 01:06:43;;;;;;;5.53;1.77;;;15.70;99.90;;;;;;5073331;28;20079;-66
2022/05/24 01:09:21;;;;;;;5.00;1.60;;;15.90;99.90;;;;;;5073147;28;20186;-68
2022/05/24 01:11:51;;;;;;;6.65;1.40;;;15.90;99.90;;;;;;5075371;28;20135;-67
2022/05/24 01:14:20;;;;;;;3.78;1.30;;;15.80;99.90;;;;;;5077207;28;20051;-68
2022/05/24 01:16:46;;;;;;;6.90;1.58;;;15.50;99.90;;;;;;5077120;28;20044;-68
2022/05/24 01:19:37;;;;;;;6.43;1.40;;;15.30;99.90;;;;;;5076970;28;20051;-67
2022/05/24 01:22:44;;;;;;;5.53;2.38;;;15.20;99.90;;;;;;5069445;28;20044;-67
2022/05/24 01:25:36;;;;;;;3.78;1.27;;;15.00;99.90;;;;;;5076108;28;20089;-67
2022/05/24 01:28:08;;;;;;;4.95;1.40;;;15.00;99.90;;;;;;5076826;28;20040;-67
2022/05/24 01:30:34;;;;;;;3.17;1.40;;;15.10;99.90;;;;;;5076899;28;20033;-67
2022/05/24 01:38:29;;;;;;;1.27;0.55;;;14.10;99.90;;;;;;5076795;28;20284;-66
2022/05/24 01:40:55;;;;;;;5.10;0.70;;;13.80;99.90;;;;;;5076632;28;20058;-66
2022/05/24 01:43:26;;;;;;;2.28;0.40;;;13.90;99.90;;;;;;5076670;28;20070;-68
2022/05/24 01:46:05;;;;;;;1.80;0.57;;;13.70;99.90;;;;;;5076626;28;20045;-66
2022/05/24 01:48:46;;;;;;;7.28;0.52;;;13.50;99.90;;;;;;5076580;28;20036;-66
2022/05/24 01:51:13;;;;;;;;;;;13.60;99.90;;;;;;5076804;28;20036;-67
2022/05/24 01:53:48;;;;;;;2.15;0.60;;;13.30;99.90;;;;;;5076186;28;19908;-66
2022/05/24 01:56:19;;;;;;;0.73;0.50;;;13.30;99.90;;;;;;5076047;28;20040;-65
2022/05/24 01:58:53;;;;;;;1.23;0.47;;;13.20;99.90;;;;;;5075447;28;20063;-66
2022/05/24 02:01:40;;;;;;;4.05;0.88;;;13.10;99.90;;;;;;5075519;28;20066;-66
2022/05/24 02:04:06;;;;;;;6.13;0.47;;;12.90;99.90;;;;;;5075010;28;20120;-66
2022/05/24 02:06:33;;;;;;;1.80;0.73;;;12.90;99.90;;;;;;5076094;28;20068;-66
2022/05/24 02:08:59;;;;;;;3.15;0.40;;;13.00;99.90;;;;;;5076170;28;20484;-67
2022/05/24 02:11:27;;;;;;;4.03;0.80;;;13.30;99.90;;;;;;5075957;28;20048;-66
2022/05/24 02:14:10;;;;;;;3.60;0.60;;;13.40;99.90;;;;;;5074713;28;20048;-67
2022/05/24 02:16:43;;;;;;;1.70;0.60;;;13.50;99.90;;;;;;5075820;28;20032;-67
2022/05/24 02:19:12;;;;;;;8.65;0.93;;;13.60;99.90;;;;;;5075595;28;20127;-66
2022/05/24 02:21:40;;;;;;;1.77;0.60;;;13.60;99.90;;;;;;5075084;28;20048;-66
2022/05/24 02:24:21;;;;;;;1.30;0.52;;;13.60;99.90;;;;;;5074801;28;20032;-68
2022/05/24 02:26:48;;;;;;;4.55;0.93;;;13.30;99.90;;;;;;5075632;28;20041;-67
2022/05/24 02:29:15;;;;;;;2.53;0.45;;;13.50;99.90;;;;;;5075945;28;20047;-67
2022/05/24 02:31:42;;;;;;;27.60;1.60;;;13.60;99.90;;;;;;5075826;28;20190;-67
2022/05/24 02:34:08;;;;;;;3.38;0.60;;;13.40;99.90;;;;;;5075677;28;20036;-66
2022/05/24 02:36:34;;;;;;;5.68;0.40;;;13.60;99.90;;;;;;5075691;28;20407;-66
2022/05/24 02:39:01;;;;;;;0.68;0.35;;;13.40;99.90;;;;;;5075512;28;20075;-67
2022/05/24 02:41:31;;;;;;;3.15;0.77;;;13.20;99.90;;;;;;5075475;28;20044;-67
2022/05/24 02:43:59;;;;;;;0.28;0.20;;;13.20;99.90;;;;;;5075681;28;20028;-68
2022/05/24 02:46:26;;;;;;;3.83;1.13;;;13.30;99.90;;;;;;5075576;28;20143;-66
2022/05/24 02:48:52;;;;;;;1.48;0.60;;;13.30;99.90;;;;;;5075335;28;20117;-66
2022/05/24 02:51:18;;;;;;;2.53;0.50;;;13.30;99.90;;;;;;5075436;28;20431;-66
2022/05/24 02:53:45;;;;;;;1.95;0.40;;;13.30;99.90;;;;;;5075494;28;20041;-67
2022/05/24 02:56:12;;;;;;;1.50;0.47;;;13.40;99.90;;;;;;5075449;28;20054;-66
2022/05/24 02:58:38;;;;;;;1.60;0.60;;;13.30;99.90;;;;;;5075329;28;20033;-67
2022/05/24 03:01:11;;;;;;;5.18;0.40;;;13.40;99.90;;;;;;5075121;28;20139;-67
2022/05/24 03:03:37;;;;;;;3.42;0.70;;;13.40;99.90;;;;;;5075205;28;20052;-68
2022/05/24 03:06:03;;;;;;;4.97;0.40;;;13.30;99.90;;;;;;5075412;28;20384;-66
2022/05/24 03:11:13;;;;;;;3.85;0.40;;;13.40;99.90;;;;;;5075005;28;20155;-68
2022/05/24 03:16:23;;;;;;;3.03;0.32;;;13.30;99.90;;;;;;5074882;28;20047;-67
2022/05/24 03:18:49;;;;;;;3.28;0.73;;;13.20;99.90;;;;;;5074963;28;20044;-67
2022/05/24 03:21:15;;;;;;;2.63;0.40;;;13.30;99.90;;;;;;5074823;28;20048;-68
2022/05/24 03:23:40;;;;;;;2.65;0.43;;;13.20;99.90;;;;;;5074631;28;20036;-66
2022/05/24 03:26:06;;;;;;;1.35;0.60;;;13.10;99.90;;;;;;5074514;28;20438;-67
2022/05/24 03:28:32;;;;;;;1.15;0.50;;;13.10;99.90;;;;;;5074310;28;20115;-67
2022/05/24 03:31:02;;;;;;;1.35;0.43;;;13.30;99.90;;;;;;5074288;28;20390;-67
2022/05/24 03:33:27;;;;;;;1.10;0.43;;;13.40;99.90;;;;;;5074281;28;20090;-67
2022/05/24 03:35:53;;;;;;;2.03;0.57;;;13.40;99.90;;;;;;5074450;28;20041;-66
2022/05/24 03:38:19;;;;;;;2.03;0.60;;;13.50;99.90;;;;;;5074274;28;20068;-67
2022/05/24 03:40:45;;;;;;;4.60;1.10;;;13.40;99.90;;;;;;5074051;28;20052;-66
2022/05/24 03:43:15;;;;;;;4.82;0.68;;;13.30;99.90;;;;;;5074334;28;20120;-67
2022/05/24 03:45:42;;;;;;;2.50;0.47;;;13.30;99.90;;;;;;5074376;28;20045;-66
2022/05/24 03:48:08;;;;;;;1.70;0.65;;;13.20;99.90;;;;;;5074239;28;20099;-66
2022/05/24 03:50:34;;;;;;;3.80;0.63;;;13.20;99.90;;;;;;5074372;28;20024;-67
2022/05/24 03:53:00;;;;;;;1.20;0.60;;;13.20;99.90;;;;;;5073857;28;20044;-67
2022/05/24 03:55:26;;;;;;;3.10;0.40;;;13.40;99.90;;;;;;5073741;28;20040;-66
2022/05/24 03:58:04;;;;;;;1.08;0.40;;;13.40;99.90;;;;;;5074144;28;20033;-67
2022/05/24 04:00:36;;;;;;;6.43;0.63;;;13.40;99.90;;;;;;5074246;28;20500;-67
2022/05/24 04:03:03;;;;;;;1.98;0.80;;;13.30;99.90;;;;;;5074148;28;20119;-67
2022/05/24 04:05:30;;;;;;;1.38;0.40;;;13.20;99.90;;;;;;5074178;28;20098;-67
2022/05/24 04:07:57;;;;;;;2.05;0.68;;;13.30;99.90;;;;;;5074023;28;20032;-66
2022/05/24 04:10:23;;;;;;;2.22;0.57;;;13.30;99.90;;;;;;5074082;28;20139;-67
2022/05/24 04:12:50;;;;;;;2.42;0.40;;;13.30;99.90;;;;;;5073864;28;20071;-67
2022/05/24 04:15:16;;;;;;;1.25;0.40;;;13.20;99.90;;;;;;5073739;28;20040;-68
2022/05/24 04:17:42;;;;;;;2.63;0.85;;;13.10;99.90;;;;;;5073777;28;20123;-67
2022/05/24 04:20:09;;;;;;;2.45;0.52;;;13.10;99.90;;;;;;5073916;28;20051;-66
2022/05/24 04:22:35;;;;;;;1.63;0.40;;;13.20;99.90;;;;;;5073289;28;20420;-67
2022/05/24 04:25:02;;;;;;;2.17;0.60;;;13.20;99.90;;;;;;5073735;28;20109;-66
2022/05/24 04:27:28;;;;;;;1.48;0.40;;;13.20;99.90;;;;;;5073804;28;20075;-68
2022/05/24 04:29:54;;;;;;;3.05;0.85;;;13.10;99.90;;;;;;5073803;28;20036;-66
2022/05/24 04:32:21;;;;;;;3.03;0.95;;;13.10;99.90;;;;;;5073704;28;20045;-67
2022/05/24 04:34:47;;;;;;;2.63;0.70;;;13.10;99.90;;;;;;5073719;28;20047;-68
2022/05/24 04:37:13;;;;;;;2.10;0.63;;;13.00;99.90;;;;;;5073724;28;20396;-68
2022/05/24 04:39:39;;;;;;;2.08;0.60;;;13.00;99.90;;;;;;5072062;28;20044;-66
2022/05/24 04:42:24;;;;;;;2.92;0.70;;;12.90;99.90;;;;;;5070991;28;20106;-67
2022/05/24 04:44:59;;;;;;;0.63;0.38;;;13.00;99.90;;;;;;5071380;28;20381;-67
2022/05/24 04:47:28;;;;;;;3.13;0.50;;;13.00;99.90;;;;;;5076646;28;20040;-68
2022/05/24 04:49:56;;;;;;;4.88;0.60;;;13.00;99.90;;;;;;5077768;28;20040;-67
2022/05/24 04:52:28;;;;;;;0.88;0.50;;;13.00;99.90;;;;;;5077535;28;20044;-66
2022/05/24 04:54:54;;;;;;;4.25;0.50;;;12.90;99.90;;;;;;5077701;28;20042;-68
2022/05/24 04:57:21;;;;;;;4.82;0.47;;;12.90;99.90;;;;;;5077647;28;20044;-66
2022/05/24 04:59:47;;;;;;;2.95;0.73;;;12.80;99.90;;;;;;5077583;28;20067;-66
2022/05/24 05:02:13;;;;;;;2.85;0.60;;;12.80;99.90;;;;;;5077431;28;20040;-67
2022/05/24 05:04:39;;;;;;;3.83;0.60;;;12.90;99.90;;;;;;5077515;28;20415;-68
2022/05/24 05:07:06;;;;;;;2.58;0.55;;;12.90;99.90;;;;;;5077512;28;20043;-68
2022/05/24 05:09:37;;;;;;;6.85;0.65;;;13.10;99.90;;;;;;5077447;28;20037;-65
2022/05/24 05:12:05;;;;;;;4.53;0.88;;;13.30;99.90;;;;;;5077422;28;20097;-66
2022/05/24 05:14:31;;;;;;;1.92;0.60;;;13.40;99.90;;;;;;5077164;28;20044;-68
2022/05/24 05:16:58;;;;;;;2.85;0.55;;;13.60;99.90;;;;;;5077146;28;20065;-66
2022/05/24 05:19:24;;;;;;;5.68;0.63;;;13.90;99.90;;;;;;5077195;28;20492;-67
2022/05/24 05:21:50;;;;;;;3.65;0.55;;;13.90;99.90;;;;;;5077105;28;20135;-66
2022/05/24 05:24:16;;;;;;;2.33;0.50;;;14.00;99.90;;;;;;5076957;28;20120;-68
2022/05/24 05:26:42;;;;;;;3.97;0.60;;;14.00;99.90;;;;;;5076894;28;20492;-66
2022/05/24 05:29:08;;;;;;;6.53;0.68;;;14.00;99.90;;;;;;5076926;28;20044;-67
2022/05/24 05:31:33;;;;;;;4.88;0.43;;;14.10;99.90;;;;;;5076632;28;20120;-66
2022/05/24 05:34:01;;;;;;;1.65;0.45;;;14.30;99.90;;;;;;5075860;28;20083;-67
2022/05/24 05:36:28;;;;;;;2.47;0.52;;;14.10;99.90;;;;;;5075780;28;20039;-66
2022/05/24 05:38:55;;;;;;;1.30;0.70;;;14.10;99.90;;;;;;5076083;28;20044;-67
2022/05/24 05:41:23;;;;;;;4.22;0.70;;;14.30;99.90;;;;;;5080581;28;20055;-67
2022/05/24 05:43:49;;;;;;;2.05;0.80;;;14.40;99.90;;;;;;5094431;28;20044;-67
2022/05/24 05:46:16;;;;;;;4.50;0.55;;;14.90;99.90;;;;;;5096684;28;20399;-67
2022/05/24 05:48:43;;;;;;;1.50;0.47;;;15.10;99.90;;;;;;5096680;28;20040;-67
2022/05/24 05:51:11;;;;;;;1.95;0.68;;;15.20;99.90;;;;;;5096528;28;20047;-67
2022/05/24 05:53:38;;;;;;;5.47;0.68;;;15.10;99.90;;;;;;5096491;28;20040;-67
2022/05/24 05:56:04;;;;;;;2.15;0.60;;;14.60;99.90;;;;;;5095197;28;20088;-66
2022/05/24 05:58:30;;;;;;;2.60;0.60;;;14.90;99.90;;;;;;5096428;28;20032;-66
2022/05/24 06:00:56;;;;;;;3.75;0.55;;;15.20;99.90;;;;;;5096393;28;20193;-66
2022/05/24 06:03:23;;;;;;;5.15;0.70;;;15.40;99.90;;;;;;5096473;28;20036;-66
2022/05/24 06:05:51;;;;;;;1.42;0.50;;;15.60;99.90;;;;;;5096376;28;20388;-65
2022/05/24 06:08:18;;;;;;;3.13;0.47;;;16.00;99.90;;;;;;5096521;28;20107;-65
2022/05/24 06:10:44;;;;;;;1.95;0.60;;;16.30;99.90;;;;;;5095203;28;20526;-66
2022/05/24 06:13:10;;;;;;;6.82;0.63;;;16.50;99.90;;;;;;5096275;28;20044;-67
2022/05/24 06:15:37;;;;;;;3.00;0.63;;;16.60;99.90;;;;;;5095258;28;20032;-66
2022/05/24 06:18:04;;;;;;;2.00;0.60;;;16.50;99.90;;;;;;5096258;28;20502;-66
2022/05/24 06:20:32;;;;;;;2.08;0.45;;;16.70;99.90;;;;;;5096359;28;20036;-67
2022/05/24 06:22:59;;;;;;;5.25;0.63;;;16.60;99.90;;;;;;5095572;28;20047;-66
2022/05/24 06:25:27;;;;;;;0.50;0.40;;;16.50;99.90;;;;;;5095304;28;20594;-67
2022/05/24 06:27:54;;;;;;;2.80;0.32;;;16.10;99.90;;;;;;5096078;28;20028;-67
2022/05/24 06:30:22;;;;;;;2.97;0.88;;;16.20;99.90;;;;;;5096040;28;20088;-68
2022/05/24 06:32:49;;;;;;;3.13;0.40;;;16.60;99.90;;;;;;5096027;28;20043;-67
2022/05/24 06:35:15;;;;;;;2.92;0.75;;;16.60;99.90;;;;;;5096130;28;20126;-67
2022/05/24 06:37:42;;;;;;;2.13;0.50;;;15.40;99.90;;;;;;5096176;28;20044;-67
2022/05/24 06:40:15;;;;;;;6.18;1.17;;;15.30;99.90;;;;;;5095907;28;20062;-69
2022/05/24 06:42:41;;;;;;;2.75;0.60;;;16.30;99.90;;;;;;5095973;28;20050;-69
2022/05/24 06:45:08;;;;;;;3.97;0.65;;;16.80;99.90;;;;;;5095663;28;20122;-69
2022/05/24 06:47:34;;;;;;;2.15;0.50;;;16.60;99.90;;;;;;5095765;28;20094;-68
2022/05/24 06:50:00;;;;;;;2.13;0.55;;;17.60;99.90;;;;;;5095886;28;20048;-68
2022/05/24 06:52:26;;;;;;;3.17;0.55;;;17.90;99.90;;;;;;5084916;28;20040;-68
2022/05/24 06:54:53;;;;;;;4.45;0.70;;;17.90;99.90;;;;;;5075534;28;20408;-68
2022/05/24 06:57:19;;;;;;;1.80;0.60;;;17.70;99.90;;;;;;5075449;28;20071;-69
2022/05/24 07:02:30;;;;;;;5.18;0.77;;;16.50;99.90;;;;;;5075312;28;20488;-68
2022/05/24 07:05:02;;;;;;;1.13;0.40;;;17.00;99.90;;;;;;5075200;28;20051;-70
2022/05/24 07:07:30;;;;;;;3.97;0.70;;;17.20;99.90;;;;;;5075314;28;20450;-68
2022/05/24 07:09:56;;;;;;;3.13;0.55;;;17.80;99.90;;;;;;5074817;28;20059;-68
2022/05/24 07:12:23;;;;;;;1.33;0.40;;;17.70;99.90;;;;;;5075179;28;20055;-68
2022/05/24 07:14:49;;;;;;;1.27;0.40;;;17.40;99.90;;;;;;5075200;28;20094;-67
2022/05/24 07:17:17;;;;;;;3.15;0.68;;;17.60;99.90;;;;;;5075069;28;20392;-67
2022/05/24 07:19:44;;;;;;;2.53;0.95;;;18.00;99.90;;;;;;5074585;28;20044;-67
2022/05/24 07:22:11;;;;;;;2.67;0.50;;;18.40;99.90;;;;;;5074804;28;20399;-66
2022/05/24 07:24:38;;;;;;;2.72;0.60;;;17.90;99.90;;;;;;5075015;28;20464;-66
2022/05/24 07:27:10;;;;;;;2.85;0.68;;;17.20;99.90;;;;;;5074924;28;20095;-67
2022/05/24 07:29:37;;;;;;;2.83;0.52;;;17.40;99.90;;;;;;5074730;28;20036;-67
2022/05/24 07:32:04;;;;;;;3.08;0.60;;;17.70;99.90;;;;;;5074503;28;20052;-67
2022/05/24 07:34:31;;;;;;;3.97;0.85;;;17.50;99.90;;;;;;5074404;28;20043;-67
2022/05/24 07:36:57;;;;;;;1.90;0.50;;;17.60;99.90;;;;;;5074430;28;20135;-67
2022/05/24 07:39:23;;;;;;;3.33;0.60;;;18.10;99.90;;;;;;5074598;28;20029;-66
2022/05/24 07:47:19;;;;;;;4.38;0.60;;;18.20;99.90;;;;;;5054147;28;20128;-66
2022/05/24 07:49:45;;;;;;;2.97;0.70;;;17.50;99.90;;;;;;5054195;28;20076;-66
2022/05/24 07:52:11;;;;;;;3.60;0.85;;;18.50;99.90;;;;;;5054114;28;20079;-66
2022/05/24 07:54:37;;;;;;;1.48;1.10;;;18.30;99.50;;;;;;5054149;28;20500;-66
2022/05/24 07:57:08;;;;;;;1.50;0.40;;;18.80;98.30;;;;;;5054006;28;20047;-66
2022/05/24 07:59:35;;;;;;;3.63;0.47;;;19.00;99.60;;;;;;5054028;28;20049;-66
2022/05/24 08:02:01;;;;;;;1.27;0.50;;;18.90;99.70;;;;;;5054173;28;20075;-66
2022/05/24 08:04:27;;;;;;;3.40;0.68;;;17.60;98.80;;;;;;5069520;28;20025;-66
2022/05/24 08:06:54;;;;;;;3.70;0.57;;;17.40;98.50;;;;;;5054156;28;20036;-66
2022/05/24 08:09:20;;;;;;;3.28;0.75;;;17.30;99.90;;;;;;5053867;28;20028;-66
2022/05/24 08:11:46;;;;;;;7.97;0.65;;;18.30;99.90;;;;;;5053763;28;20096;-66
2022/05/24 08:14:12;;;;;;;2.85;0.70;;;17.50;99.90;;;;;;5054075;28;20060;-66
2022/05/24 08:16:38;;;;;;;5.68;0.70;;;17.30;99.80;;;;;;5054027;28;20041;-66
2022/05/24 08:19:04;;;;;;;6.60;0.57;;;17.30;98.80;;;;;;5053786;28;20033;-66
2022/05/24 08:21:31;;;;;;;3.88;0.75;;;17.50;99.50;;;;;;5053023;28;20465;-66
2022/05/24 08:23:57;;;;;;;1.33;0.57;;;17.60;99.90;;;;;;5053733;28;20112;-66
2022/05/24 08:26:23;;;;;;;1.48;0.30;;;18.40;99.70;;;;;;5053601;28;20045;-67
2022/05/24 08:28:51;;;;;;;2.88;0.63;;;18.90;99.40;;;;;;5053852;28;20037;-67
2022/05/24 08:31:18;;;;;;;1.38;0.52;;;19.40;98.90;;;;;;5054031;28;20041;-67
2022/05/24 08:33:45;;;;;;;4.65;0.85;;;19.90;96.60;;;;;;5053829;28;20163;-66
2022/05/24 08:36:12;;;;;;;1.02;0.38;;;20.00;96.30;;;;;;5053937;28;20037;-66
2022/05/24 08:38:40;;;;;;;2.38;0.70;;;19.20;95.10;;;;;;5053832;28;20131;-66
2022/05/24 08:41:12;;;;;;;2.72;0.63;;;19.40;96.40;;;;;;5053709;28;20045;-66
2022/05/24 08:43:45;;;;;;;3.22;0.85;;;18.20;95.90;;;;;;5060172;28;20485;-66
2022/05/24 08:49:13;;;;;;;5.83;0.53;;;18.20;97.60;;;;;;5071399;28;20039;-66
2022/05/24 08:52:04;;;;;;;2.40;0.75;;;17.90;96.80;;;;;;5073412;28;20044;-66
2022/05/24 08:54:45;;;;;;;2.15;0.60;;;17.60;97.50;;;;;;5073585;28;20396;-66
2022/05/24 08:57:21;;;;;;;1.92;0.35;;;17.30;97.00;;;;;;5072903;28;20041;-66
2022/05/24 08:59:51;;;;;;;2.78;0.65;;;17.40;96.70;;;;;;5053132;28;20083;-67
2022/05/24 09:02:20;;;;;;;1.83;0.35;;;18.20;96.20;;;;;;5053262;28;20057;-66
2022/05/24 09:04:46;;;;;;;3.50;0.50;;;17.50;95.70;;;;;;5053441;28;20059;-66
2022/05/24 09:07:23;;;;;;;2.03;0.60;;;18.20;95.70;;;;;;5053363;28;20041;-66
2022/05/24 09:10:17;;;;;;;2.92;0.52;;;18.80;97.00;;;;;;5053322;28;20045;-66
2022/05/24 09:13:16;;;;;;;1.98;0.70;;;19.50;94.00;;;;;;5053465;28;20041;-66
2022/05/24 09:15:56;;;;;;;2.35;0.57;;;19.10;93.10;;;;;;5053397;28;20389;-66
2022/05/24 09:19:00;;;;;;;2.55;0.50;;;20.20;95.20;;;;;;5053164;28;20045;-66
2022/05/24 09:21:32;;;;;;;0.90;0.35;;;19.00;94.10;;;;;;5053216;28;20052;-66
2022/05/24 09:24:29;;;;;;;2.47;0.52;;;18.90;94.30;;;;;;5053146;28;20075;-66
2022/05/24 09:27:05;;;;;;;3.10;0.30;;;18.90;95.40;;;;;;5053189;28;20458;-66
2022/05/24 09:29:32;;;;;;;2.13;0.70;;;18.80;94.10;;;;;;5053297;28;20073;-66
2022/05/24 09:32:03;;;;;;;0.45;0.28;;;18.40;94.30;;;;;;5054202;28;20033;-66
2022/05/24 09:34:34;;;;;;;1.60;0.47;;;18.80;95.20;;;;;;5058866;28;20048;-67
2022/05/24 09:37:25;;;;;;;3.25;0.85;;;18.90;93.50;;;;;;5074890;28;20495;-67
2022/05/24 09:39:57;;;;;;;;;;;18.70;93.20;;;;;;5074945;28;20127;-66
2022/05/24 09:42:30;;;;;;;4.00;0.95;;;19.40;93.50;;;;;;5074922;28;19909;-66
2022/05/24 09:45:18;;;;;;;2.88;0.80;;;20.20;93.70;;;;;;5074424;28;20037;-66
2022/05/24 09:47:43;;;;;;;8.65;4.57;;;20.70;92.80;;;;;;5074541;28;20195;-66
2022/05/24 09:50:19;;;;;;;3.15;0.65;;;20.60;91.80;;;;;;5074080;28;20133;-66
2022/05/24 09:53:08;;;;;;;1.67;0.75;;;20.50;93.70;;;;;;5076597;28;20059;-66
2022/05/24 09:55:39;;;;;;;8.85;3.95;;;20.80;90.50;;;;;;5059257;28;20039;-66
2022/05/24 09:58:31;;;;;;;4.10;0.60;;;20.40;91.70;;;;;;5076027;28;20063;-67
2022/05/24 10:01:06;;;;;;;3.17;0.63;;;20.90;91.70;;;;;;5073249;28;20500;-67
2022/05/24 10:03:41;;;;;;;1.33;0.57;;;21.10;90.50;;;;;;5067083;28;20036;-67
2022/05/24 10:06:19;;;;;;;1.95;1.08;;;21.20;92.60;;;;;;5069375;28;20396;-67
2022/05/24 10:08:50;;;;;;;2.80;2.28;;;21.00;90.10;;;;;;5073757;28;20068;-67
2022/05/24 10:11:33;;;;;;;0.57;0.32;;;19.90;90.40;;;;;;5073911;28;20051;-67
2022/05/24 10:14:18;;;;;;;4.63;3.67;;;19.90;89.00;;;;;;5073832;28;20568;-67
2022/05/24 10:16:52;;;;;;;1.52;0.30;;;20.40;91.30;;;;;;5073848;28;20071;-67
2022/05/24 10:19:36;;;;;;;1.90;0.60;;;20.70;91.10;;;;;;5074505;28;20419;-67
2022/05/24 10:22:38;;;;;;;2.03;0.60;;;20.30;90.00;;;;;;5075113;28;20044;-66
2022/05/24 10:25:17;;;;;;;0.77;0.30;;;19.20;89.70;;;;;;5072852;28;20044;-66
2022/05/24 10:28:16;;;;;;;2.30;0.52;;;19.80;88.80;;;;;;5073432;28;20107;-67
2022/05/24 10:31:08;;;;;;;2.17;0.40;;;20.30;91.80;;;;;;5073331;28;20066;-67
2022/05/24 10:39:29;;;;;;;1.38;0.55;;;20.90;91.90;;;;;;5073186;28;20044;-67
2022/05/24 10:42:20;;;;;;;2.53;0.45;;;20.70;91.40;;;;;;5073278;28;20056;-66
2022/05/24 10:44:53;;;;;;;3.42;0.50;;;20.60;92.10;;;;;;5072271;28;20427;-66
2022/05/24 10:47:42;;;;;;;0.88;0.40;;;20.50;91.10;;;;;;5072977;28;20059;-67
2022/05/24 10:50:14;;;;;;;4.38;0.73;;;20.80;91.80;;;;;;5074920;28;20403;-66
2022/05/24 10:52:47;;;;;;;0.80;0.35;;;20.80;90.60;;;;;;5073261;28;20044;-66
2022/05/24 10:55:24;;;;;;;2.13;0.60;;;21.30;87.40;;;;;;5074003;28;20488;-66
2022/05/24 10:58:05;;;;;;;0.80;0.28;;;20.80;84.70;;;;;;5074994;28;20135;-66
2022/05/24 11:00:43;;;;;;;3.22;0.63;;;20.90;86.80;;;;;;5073224;28;20151;-66
2022/05/24 11:03:28;;;;;;;2.17;0.60;;;20.30;84.50;;;;;;5073364;28;20429;-67
2022/05/24 11:06:11;;;;;;;0.63;0.32;;;20.00;84.60;;;;;;5072962;28;20048;-67
2022/05/24 11:09:05;;;;;;;1.40;0.40;;;19.40;84.30;;;;;;5073128;28;20093;-66
2022/05/24 11:11:54;;;;;;;1.70;0.68;;;20.30;85.40;;;;;;5072908;28;20531;-66
2022/05/24 11:14:47;;;;;;;1.75;0.50;;;19.80;84.20;;;;;;5073020;28;20028;-66
2022/05/24 11:17:14;;;;;;;1.23;0.55;;;21.20;90.00;;;;;;5072812;28;20037;-66
2022/05/24 11:19:45;;;;;;;4.25;0.40;;;21.20;85.00;;;;;;5072891;28;20040;-66
2022/05/24 11:22:30;;;;;;;3.97;0.57;;;21.40;85.00;;;;;;5072575;28;20050;-66
2022/05/24 11:25:02;;;;;;;2.95;0.30;;;20.90;87.50;;;;;;5072700;28;20123;-66
2022/05/24 11:27:41;;;;;;;1.67;0.50;;;21.60;89.00;;;;;;5072538;28;20040;-66
2022/05/24 11:30:15;;;;;;;2.63;0.70;;;21.70;87.20;;;;;;5072871;28;20119;-67
2022/05/24 11:32:51;;;;;;;4.80;0.70;;;20.40;85.40;;;;;;5072015;28;20039;-67
2022/05/24 11:35:19;;;;;;;0.95;0.35;;;20.50;86.20;;;;;;5072646;28;20033;-66
2022/05/24 11:37:52;;;;;;;1.48;0.60;;;20.70;87.80;;;;;;5072004;28;20044;-66
2022/05/24 11:40:39;;;;;;;4.07;0.35;;;20.60;89.90;;;;;;5072456;28;20063;-67
2022/05/24 11:43:43;;;;;;;3.65;0.70;;;20.50;87.50;;;;;;5073268;28;20171;-66
2022/05/24 11:46:29;;;;;;;1.58;0.22;;;20.50;87.50;;;;;;5072529;28;20102;-66
2022/05/24 11:48:57;;;;;;;2.63;0.60;;;19.90;81.70;;;;;;5072106;28;20095;-66
2022/05/24 11:51:29;;;;;;;2.60;0.40;;;20.00;81.80;;;;;;5072126;28;20067;-66
2022/05/24 11:53:55;;;;;;;1.08;0.35;;;20.90;84.50;;;;;;5071883;28;20041;-66
2022/05/24 11:56:24;;;;;;;1.80;0.40;;;21.00;87.60;;;;;;5070457;28;20039;-67
2022/05/24 11:58:53;;;;;;;0.50;0.40;;;20.10;81.30;;;;;;5071443;28;20557;-66
2022/05/24 12:01:19;;;;;;;0.88;0.30;;;19.70;82.00;;;;;;5071479;28;20065;-66
2022/05/24 12:10:01;;;;;;;0.50;0.40;;;20.50;79.70;;;;;;5059836;28;20441;-66
2022/05/24 12:12:29;;;;;;;1.38;0.38;;;20.70;82.50;;;;;;5071756;28;20041;-66
2022/05/24 12:15:21;;;;;;;3.60;0.50;;;19.70;79.40;;;;;;5071620;28;20042;-66
2022/05/24 12:17:52;;;;;;;2.65;0.55;;;20.30;82.50;;;;;;5073214;28;20072;-66
2022/05/24 12:20:33;;;;;;;1.00;0.40;;;19.70;81.00;;;;;;5071263;28;20071;-66
2022/05/24 12:23:09;;;;;;;4.93;0.88;;;20.30;83.00;;;;;;5071331;28;20492;-66
2022/05/24 12:25:58;;;;;;;2.13;0.50;;;20.90;87.60;;;;;;5071617;28;20515;-66
2022/05/24 12:28:32;;;;;;;3.53;0.52;;;21.00;85.00;;;;;;5071640;28;20119;-66
2022/05/24 12:30:59;;;;;;;2.88;0.70;;;21.10;81.80;;;;;;5071707;28;20127;-66
2022/05/24 12:33:25;;;;;;;0.80;0.30;;;21.20;79.90;;;;;;5072709;28;20041;-66
2022/05/24 12:36:06;;;;;;;1.13;0.47;;;20.70;80.10;;;;;;5071918;28;20498;-66
2022/05/24 12:38:34;;;;;;;1.98;0.52;;;19.80;82.30;;;;;;5071547;28;20098;-68
2022/05/24 12:41:30;;;;;;;1.55;0.30;;;20.50;84.10;;;;;;5070982;28;20056;-67
2022/05/24 12:44:12;;;;;;;2.42;0.63;;;20.60;82.00;;;;;;5069111;28;20369;-67
2022/05/24 12:46:39;;;;;;;1.13;0.40;;;21.10;79.00;;;;;;5069155;28;20143;-67
2022/05/24 12:49:10;;;;;;;6.95;0.50;;;21.20;85.70;;;;;;5070462;28;20040;-67
2022/05/24 12:51:38;;;;;;;3.80;0.30;;;21.50;81.10;;;;;;5071321;28;20051;-67
2022/05/24 12:54:15;;;;;;;1.05;0.50;;;21.60;78.90;;;;;;5071057;28;20036;-67
2022/05/24 12:56:54;;;;;;;2.75;0.40;;;21.80;81.70;;;;;;5070829;28;20118;-67
2022/05/24 12:59:29;;;;;;;1.02;0.45;;;21.90;81.00;;;;;;5070754;28;20040;-66
2022/05/24 13:01:58;;;;;;;1.25;0.30;;;22.00;83.00;;;;;;5070642;28;20064;-66
2022/05/24 13:04:27;;;;;;;3.80;0.45;;;21.70;78.70;;;;;;5070673;28;20525;-67
2022/05/24 13:06:54;;;;;;;1.83;0.50;;;21.80;80.40;;;;;;5073228;28;20053;-66
2022/05/24 13:09:32;;;;;;;1.63;0.35;;;20.80;75.70;;;;;;5077019;28;20480;-66
2022/05/24 13:12:08;;;;;;;3.35;0.50;;;20.20;83.90;;;;;;5076396;28;20101;-66
2022/05/24 13:14:46;;;;;;;0.82;0.40;;;20.30;83.70;;;;;;5074768;28;20051;-66
2022/05/24 13:17:20;;;;;;;2.85;0.25;;;20.10;81.90;;;;;;5074600;28;20040;-67
2022/05/24 13:20:00;;;;;;;3.25;0.52;;;20.50;82.80;;;;;;5074200;28;20041;-67
2022/05/24 13:22:50;;;;;;;4.43;1.10;;;20.60;84.20;;;;;;5076423;28;20063;-67
2022/05/24 13:25:26;;;;;;;1.98;0.40;;;20.60;82.60;;;;;;5075147;28;20044;-67
2022/05/24 13:27:54;;;;;;;5.32;0.88;;;20.60;86.50;;;;;;5074747;28;20037;-67
2022/05/24 13:33:41;;;;;;;3.28;0.50;;;20.60;80.80;;;;;;5074930;28;20035;-67
2022/05/24 13:36:12;;;;;;;1.23;0.52;;;20.00;81.30;;;;;;5053790;28;20408;-67
2022/05/24 13:38:40;;;;;;;1.10;0.40;;;20.30;83.70;;;;;;5053775;28;20059;-67
2022/05/24 13:41:07;;;;;;;0.90;0.40;;;20.30;83.80;;;;;;5054654;28;20049;-67
2022/05/24 13:43:43;;;;;;;2.45;0.40;;;20.20;84.00;;;;;;5054058;28;20044;-67
2022/05/24 13:46:21;;;;;;;0.55;0.13;;;20.00;82.20;;;;;;5054792;28;20056;-67
2022/05/24 13:48:56;;;;;;;1.27;0.40;;;19.90;82.20;;;;;;5056543;28;20424;-67